sensor_id;sensor_type;location;lat;lon;timestamp;pressure;altitude;pressure_sealevel;temperature;humidity
86012;BME280;76591;42.170;27.850;2024-03-23T00:54:20;101646.84;;;4.76;63.59
86012;BME280;76591;42.170;27.850;2024-03-23T00:56:45;101647.81;;;4.34;63.34
86012;BME280;76591;42.170;27.850;2024-03-23T00:59:11;101648.97;;;4.23;64.56
86012;BME280;76591;42.170;27.850;2024-03-23T01:01:37;101640.41;;;4.11;64.44
86012;BME280;76591;42.170;27.850;2024-03-23T01:04:03;101643.25;;;4.10;64.44
86012;BME280;76591;42.170;27.850;2024-03-23T01:06:28;101641.34;;;4.02;64.56
86012;BME280;76591;42.170;27.850;2024-03-23T01:08:54;101636.13;;;3.92;64.60
86012;BME280;76591;42.170;27.850;2024-03-23T01:11:19;101632.06;;;3.80;64.84
86012;BME280;76591;42.170;27.850;2024-03-23T01:13:45;101629.38;;;3.72;65.19
86012;BME280;76591;42.170;27.850;2024-03-23T01:16:11;101626.00;;;3.70;65.54
86012;BME280;76591;42.170;27.850;2024-03-23T01:18:36;101620.44;;;3.63;65.76
86012;BME280;76591;42.170;27.850;2024-03-23T01:21:02;101615.56;;;3.59;65.73
86012;BME280;76591;42.170;27.850;2024-03-23T01:23:27;101619.38;;;3.48;65.56
86012;BME280;76591;42.170;27.850;2024-03-23T01:25:54;101620.63;;;3.36;66.16
86012;BME280;76591;42.170;27.850;2024-03-23T01:28:20;101623.13;;;3.29;66.26
86012;BME280;76591;42.170;27.850;2024-03-23T01:30:46;101622.38;;;3.19;66.44
86012;BME280;76591;42.170;27.850;2024-03-23T01:33:12;101609.66;;;3.21;66.70
86012;BME280;76591;42.170;27.850;2024-03-23T01:35:38;101611.34;;;3.22;66.70
86012;BME280;76591;42.170;27.850;2024-03-23T01:38:04;101617.41;;;3.32;66.54
86012;BME280;76591;42.170;27.850;2024-03-23T01:40:29;101619.13;;;3.33;66.72
86012;BME280;76591;42.170;27.850;2024-03-23T01:43:05;101614.72;;;3.32;66.44
86012;BME280;76591;42.170;27.850;2024-03-23T01:45:31;101610.53;;;3.29;66.64
86012;BME280;76591;42.170;27.850;2024-03-23T01:47:58;101609.56;;;3.30;66.92
86012;BME280;76591;42.170;27.850;2024-03-23T01:50:24;101610.06;;;3.34;67.01
86012;BME280;76591;42.170;27.850;2024-03-23T01:52:50;101607.75;;;3.39;66.74
86012;BME280;76591;42.170;27.850;2024-03-23T01:55:16;101612.78;;;3.42;66.43
86012;BME280;76591;42.170;27.850;2024-03-23T01:57:42;101610.22;;;3.33;66.94
86012;BME280;76591;42.170;27.850;2024-03-23T02:00:08;101599.84;;;3.38;66.45
86012;BME280;76591;42.170;27.850;2024-03-23T02:02:35;101594.81;;;3.35;66.55
86012;BME280;76591;42.170;27.850;2024-03-23T02:05:00;101600.84;;;3.37;66.65
86012;BME280;76591;42.170;27.850;2024-03-23T02:07:27;101599.84;;;3.38;66.70
86012;BME280;76591;42.170;27.850;2024-03-23T02:09:53;101600.63;;;3.30;66.78
86012;BME280;76591;42.170;27.850;2024-03-23T02:12:19;101589.69;;;3.23;66.64
86012;BME280;76591;42.170;27.850;2024-03-23T02:14:45;101593.88;;;3.18;66.59
86012;BME280;76591;42.170;27.850;2024-03-23T02:17:10;101590.81;;;3.13;66.79
86012;BME280;76591;42.170;27.850;2024-03-23T02:19:36;101588.94;;;3.05;66.91
86012;BME280;76591;42.170;27.850;2024-03-23T02:22:02;101592.09;;;3.00;67.27
86012;BME280;76591;42.170;27.850;2024-03-23T02:24:29;101586.59;;;3.02;67.02
86012;BME280;76591;42.170;27.850;2024-03-23T02:26:54;101582.09;;;3.11;67.16
86012;BME280;76591;42.170;27.850;2024-03-23T02:29:20;101588.50;;;3.18;67.11
86012;BME280;76591;42.170;27.850;2024-03-23T02:31:46;101589.69;;;3.15;66.92
86012;BME280;76591;42.170;27.850;2024-03-23T02:34:11;101587.94;;;3.06;66.73
86012;BME280;76591;42.170;27.850;2024-03-23T02:36:37;101586.47;;;3.12;67.14
86012;BME280;76591;42.170;27.850;2024-03-23T02:39:02;101591.34;;;3.16;67.05
86012;BME280;76591;42.170;27.850;2024-03-23T02:41:28;101592.88;;;3.19;66.93
86012;BME280;76591;42.170;27.850;2024-03-23T02:43:54;101590.72;;;3.22;67.12
86012;BME280;76591;42.170;27.850;2024-03-23T02:46:19;101594.75;;;3.26;67.10
86012;BME280;76591;42.170;27.850;2024-03-23T02:48:45;101591.25;;;3.26;66.84
86012;BME280;76591;42.170;27.850;2024-03-23T02:51:10;101586.19;;;3.23;66.89
86012;BME280;76591;42.170;27.850;2024-03-23T02:53:36;101589.41;;;3.26;66.81
86012;BME280;76591;42.170;27.850;2024-03-23T02:56:01;101590.91;;;3.29;67.14
86012;BME280;76591;42.170;27.850;2024-03-23T02:58:27;101587.06;;;3.32;67.03
86012;BME280;76591;42.170;27.850;2024-03-23T03:00:53;101597.00;;;3.39;67.07
86012;BME280;76591;42.170;27.850;2024-03-23T03:03:18;101599.34;;;3.42;66.55
86012;BME280;76591;42.170;27.850;2024-03-23T03:05:44;101598.69;;;3.40;66.73
86012;BME280;76591;42.170;27.850;2024-03-23T03:08:09;101595.50;;;3.45;66.42
86012;BME280;76591;42.170;27.850;2024-03-23T03:10:35;101593.19;;;3.50;66.63
86012;BME280;76591;42.170;27.850;2024-03-23T03:13:02;101598.22;;;3.53;66.63
86012;BME280;76591;42.170;27.850;2024-03-23T03:15:28;101596.09;;;3.65;66.40
86012;BME280;76591;42.170;27.850;2024-03-23T03:17:53;101597.25;;;3.62;66.02
86012;BME280;76591;42.170;27.850;2024-03-23T03:20:19;101600.13;;;3.61;66.47
86012;BME280;76591;42.170;27.850;2024-03-23T03:22:47;101595.13;;;3.74;66.86
86012;BME280;76591;42.170;27.850;2024-03-23T03:25:13;101597.78;;;3.66;66.48
86012;BME280;76591;42.170;27.850;2024-03-23T03:27:38;101600.78;;;3.63;66.44
86012;BME280;76591;42.170;27.850;2024-03-23T03:30:05;101604.97;;;3.57;66.51
86012;BME280;76591;42.170;27.850;2024-03-23T03:32:32;101600.75;;;3.55;66.69
86012;BME280;76591;42.170;27.850;2024-03-23T03:34:58;101598.03;;;3.46;66.67
86012;BME280;76591;42.170;27.850;2024-03-23T03:37:24;101608.09;;;3.44;66.76
86012;BME280;76591;42.170;27.850;2024-03-23T03:39:49;101602.03;;;3.42;66.82
86012;BME280;76591;42.170;27.850;2024-03-23T03:42:15;101606.03;;;3.38;66.91
86012;BME280;76591;42.170;27.850;2024-03-23T03:44:41;101607.75;;;3.39;67.01
86012;BME280;76591;42.170;27.850;2024-03-23T03:47:06;101611.78;;;3.43;67.02
86012;BME280;76591;42.170;27.850;2024-03-23T03:49:32;101610.78;;;3.44;67.12
86012;BME280;76591;42.170;27.850;2024-03-23T03:51:58;101604.38;;;3.37;67.03
86012;BME280;76591;42.170;27.850;2024-03-23T03:54:23;101608.94;;;3.45;66.97
86012;BME280;76591;42.170;27.850;2024-03-23T03:56:49;101603.25;;;3.48;66.71
86012;BME280;76591;42.170;27.850;2024-03-23T03:59:15;101610.63;;;3.46;66.54
86012;BME280;76591;42.170;27.850;2024-03-23T04:01:40;101604.88;;;3.41;66.78
86012;BME280;76591;42.170;27.850;2024-03-23T04:04:06;101609.47;;;3.48;67.06
86012;BME280;76591;42.170;27.850;2024-03-23T04:06:32;101599.59;;;3.57;66.83
86012;BME280;76591;42.170;27.850;2024-03-23T04:08:58;101600.38;;;3.49;66.67
86012;BME280;76591;42.170;27.850;2024-03-23T04:11:24;101600.28;;;3.59;66.62
86012;BME280;76591;42.170;27.850;2024-03-23T04:13:50;101598.16;;;3.79;66.68
86012;BME280;76591;42.170;27.850;2024-03-23T04:16:29;101605.59;;;4.02;66.39
86012;BME280;76591;42.170;27.850;2024-03-23T04:18:55;101610.50;;;4.15;66.55
86012;BME280;76591;42.170;27.850;2024-03-23T04:21:24;101607.81;;;4.39;66.32
86012;BME280;76591;42.170;27.850;2024-03-23T04:23:50;101614.72;;;4.50;65.29
86012;BME280;76591;42.170;27.850;2024-03-23T04:26:15;101610.88;;;4.61;64.63
86012;BME280;76591;42.170;27.850;2024-03-23T04:28:41;101607.81;;;4.80;64.51
86012;BME280;76591;42.170;27.850;2024-03-23T04:31:08;101615.53;;;4.91;63.65
86012;BME280;76591;42.170;27.850;2024-03-23T04:33:34;101605.28;;;4.95;63.22
86012;BME280;76591;42.170;27.850;2024-03-23T04:35:59;101609.47;;;5.06;63.16
86012;BME280;76591;42.170;27.850;2024-03-23T04:38:25;101605.91;;;5.13;62.89
86012;BME280;76591;42.170;27.850;2024-03-23T04:40:58;101607.09;;;5.19;62.62
86012;BME280;76591;42.170;27.850;2024-03-23T04:43:25;101605.88;;;5.38;62.19
86012;BME280;76591;42.170;27.850;2024-03-23T04:45:51;101596.75;;;5.47;61.20
86012;BME280;76591;42.170;27.850;2024-03-23T04:48:22;101599.53;;;5.62;61.01
86012;BME280;76591;42.170;27.850;2024-03-23T04:50:48;101604.50;;;5.82;60.05
86012;BME280;76591;42.170;27.850;2024-03-23T04:53:15;101609.81;;;5.90;59.95
86012;BME280;76591;42.170;27.850;2024-03-23T04:55:42;101603.59;;;6.21;59.72
86012;BME280;76591;42.170;27.850;2024-03-23T04:58:07;101612.00;;;6.49;59.52
86012;BME280;76591;42.170;27.850;2024-03-23T05:00:33;101610.13;;;6.72;58.81
86012;BME280;76591;42.170;27.850;2024-03-23T05:02:59;101615.31;;;7.12;58.30
86012;BME280;76591;42.170;27.850;2024-03-23T05:05:25;101610.59;;;7.43;57.67
86012;BME280;76591;42.170;27.850;2024-03-23T05:07:50;101613.63;;;7.70;56.56
86012;BME280;76591;42.170;27.850;2024-03-23T05:10:16;101609.84;;;8.01;55.74
86012;BME280;76591;42.170;27.850;2024-03-23T05:12:41;101622.59;;;8.29;55.56
86012;BME280;76591;42.170;27.850;2024-03-23T05:15:07;101616.03;;;8.53;55.05
86012;BME280;76591;42.170;27.850;2024-03-23T05:17:33;101616.22;;;8.73;54.42
86012;BME280;76591;42.170;27.850;2024-03-23T05:19:59;101605.91;;;8.90;53.65
86012;BME280;76591;42.170;27.850;2024-03-23T05:22:25;101603.56;;;9.08;53.04
86012;BME280;76591;42.170;27.850;2024-03-23T05:24:53;101609.06;;;8.93;52.59
86012;BME280;76591;42.170;27.850;2024-03-23T05:27:18;101612.91;;;9.05;52.33
86012;BME280;76591;42.170;27.850;2024-03-23T05:29:44;101615.59;;;8.99;52.60
86012;BME280;76591;42.170;27.850;2024-03-23T05:32:09;101612.41;;;8.95;52.20
86012;BME280;76591;42.170;27.850;2024-03-23T05:34:35;101607.59;;;8.91;52.44
86012;BME280;76591;42.170;27.850;2024-03-23T05:37:00;101608.72;;;9.03;51.62
86012;BME280;76591;42.170;27.850;2024-03-23T05:39:26;101606.78;;;9.25;51.34
86012;BME280;76591;42.170;27.850;2024-03-23T05:41:52;101594.34;;;9.37;50.14
86012;BME280;76591;42.170;27.850;2024-03-23T05:44:18;101600.06;;;9.49;51.02
86012;BME280;76591;42.170;27.850;2024-03-23T05:46:44;101595.00;;;9.94;50.39
86012;BME280;76591;42.170;27.850;2024-03-23T05:49:15;101595.44;;;9.98;49.99
86012;BME280;76591;42.170;27.850;2024-03-23T05:51:40;101600.47;;;10.14;49.80
86012;BME280;76591;42.170;27.850;2024-03-23T05:54:06;101599.75;;;10.60;48.87
86012;BME280;76591;42.170;27.850;2024-03-23T05:56:31;101599.34;;;10.70;48.82
86012;BME280;76591;42.170;27.850;2024-03-23T05:58:57;101599.34;;;10.83;48.19
86012;BME280;76591;42.170;27.850;2024-03-23T06:01:23;101602.25;;;11.15;47.99
86012;BME280;76591;42.170;27.850;2024-03-23T06:03:48;101600.75;;;11.19;47.58
86012;BME280;76591;42.170;27.850;2024-03-23T06:06:14;101599.69;;;11.27;46.91
86012;BME280;76591;42.170;27.850;2024-03-23T06:08:40;101598.00;;;11.26;47.03
86012;BME280;76591;42.170;27.850;2024-03-23T06:11:06;101592.34;;;11.34;46.51
86012;BME280;76591;42.170;27.850;2024-03-23T06:13:32;101594.22;;;11.40;46.07
86012;BME280;76591;42.170;27.850;2024-03-23T06:16:02;101588.13;;;11.51;46.06
86012;BME280;76591;42.170;27.850;2024-03-23T06:18:28;101594.66;;;11.44;47.29
86012;BME280;76591;42.170;27.850;2024-03-23T06:20:53;101590.81;;;11.58;47.31
86012;BME280;76591;42.170;27.850;2024-03-23T06:23:19;101593.44;;;11.78;47.58
86012;BME280;76591;42.170;27.850;2024-03-23T06:25:46;101585.66;;;11.95;47.55
86012;BME280;76591;42.170;27.850;2024-03-23T06:28:12;101594.53;;;11.70;46.91
86012;BME280;76591;42.170;27.850;2024-03-23T06:30:38;101587.38;;;11.76;47.38
86012;BME280;76591;42.170;27.850;2024-03-23T06:33:03;101596.06;;;12.11;47.63
86012;BME280;76591;42.170;27.850;2024-03-23T06:35:31;101588.22;;;12.53;46.40
86012;BME280;76591;42.170;27.850;2024-03-23T06:37:57;101589.84;;;12.86;45.37
86012;BME280;76591;42.170;27.850;2024-03-23T06:40:23;101590.31;;;13.02;45.01
86012;BME280;76591;42.170;27.850;2024-03-23T06:42:49;101594.13;;;13.19;45.02
86012;BME280;76591;42.170;27.850;2024-03-23T06:45:16;101588.09;;;13.35;44.39
86012;BME280;76591;42.170;27.850;2024-03-23T06:47:42;101588.78;;;13.68;44.38
86012;BME280;76591;42.170;27.850;2024-03-23T06:50:08;101595.84;;;13.75;44.65
86012;BME280;76591;42.170;27.850;2024-03-23T06:52:35;101597.72;;;13.75;44.37
86012;BME280;76591;42.170;27.850;2024-03-23T06:55:01;101594.28;;;13.98;44.20
86012;BME280;76591;42.170;27.850;2024-03-23T06:57:29;101594.47;;;14.15;43.52
86012;BME280;76591;42.170;27.850;2024-03-23T06:59:54;101595.59;;;14.37;43.04
86012;BME280;76591;42.170;27.850;2024-03-23T07:02:20;101607.63;;;14.48;41.97
86012;BME280;76591;42.170;27.850;2024-03-23T07:04:46;101596.44;;;14.38;43.07
86012;BME280;76591;42.170;27.850;2024-03-23T07:07:11;101597.50;;;14.37;43.41
86012;BME280;76591;42.170;27.850;2024-03-23T07:09:37;101600.53;;;14.17;43.83
86012;BME280;76591;42.170;27.850;2024-03-23T07:12:03;101593.41;;;14.16;43.36
86012;BME280;76591;42.170;27.850;2024-03-23T07:14:29;101595.59;;;14.26;43.92
86012;BME280;76591;42.170;27.850;2024-03-23T07:16:55;101593.91;;;14.55;42.68
86012;BME280;76591;42.170;27.850;2024-03-23T07:19:21;101595.94;;;13.99;41.82
86012;BME280;76591;42.170;27.850;2024-03-23T07:21:46;101597.09;;;14.21;42.26
86012;BME280;76591;42.170;27.850;2024-03-23T07:24:13;101593.84;;;14.43;41.99
86012;BME280;76591;42.170;27.850;2024-03-23T07:26:39;101590.63;;;14.46;42.09
86012;BME280;76591;42.170;27.850;2024-03-23T07:29:05;101582.03;;;14.61;41.89
86012;BME280;76591;42.170;27.850;2024-03-23T07:31:31;101591.53;;;14.82;41.81
86012;BME280;76591;42.170;27.850;2024-03-23T07:33:57;101588.09;;;14.75;41.68
86012;BME280;76591;42.170;27.850;2024-03-23T07:36:23;101585.81;;;14.60;42.79
86012;BME280;76591;42.170;27.850;2024-03-23T07:38:48;101589.06;;;14.80;42.44
86012;BME280;76591;42.170;27.850;2024-03-23T07:41:18;101582.63;;;14.75;42.75
86012;BME280;76591;42.170;27.850;2024-03-23T07:43:45;101582.53;;;14.70;43.07
86012;BME280;76591;42.170;27.850;2024-03-23T07:46:11;101588.09;;;14.63;43.52
86012;BME280;76591;42.170;27.850;2024-03-23T07:48:38;101584.69;;;14.37;43.38
86012;BME280;76591;42.170;27.850;2024-03-23T07:51:06;101586.91;;;14.29;44.14
86012;BME280;76591;42.170;27.850;2024-03-23T07:53:32;101583.56;;;14.27;43.97
86012;BME280;76591;42.170;27.850;2024-03-23T07:58:29;101587.13;;;14.69;43.29
86012;BME280;76591;42.170;27.850;2024-03-23T08:00:56;101589.75;;;14.64;43.24
86012;BME280;76591;42.170;27.850;2024-03-23T08:03:22;101579.66;;;14.22;43.96
86012;BME280;76591;42.170;27.850;2024-03-23T08:05:48;101583.03;;;14.06;44.61
86012;BME280;76591;42.170;27.850;2024-03-23T08:08:14;101574.91;;;14.30;44.53
86012;BME280;76591;42.170;27.850;2024-03-23T08:10:50;101575.84;;;14.77;43.50
86012;BME280;76591;42.170;27.850;2024-03-23T08:13:16;101573.13;;;15.01;42.97
86012;BME280;76591;42.170;27.850;2024-03-23T08:15:41;101577.78;;;15.24;42.74
86012;BME280;76591;42.170;27.850;2024-03-23T08:18:07;101577.75;;;15.36;42.40
86012;BME280;76591;42.170;27.850;2024-03-23T08:20:33;101576.91;;;15.35;42.17
86012;BME280;76591;42.170;27.850;2024-03-23T08:22:59;101576.06;;;15.35;42.22
86012;BME280;76591;42.170;27.850;2024-03-23T08:25:24;101576.59;;;15.20;42.61
86012;BME280;76591;42.170;27.850;2024-03-23T08:27:50;101570.34;;;15.48;42.57
86012;BME280;76591;42.170;27.850;2024-03-23T08:30:16;101567.34;;;15.61;42.18
86012;BME280;76591;42.170;27.850;2024-03-23T08:32:42;101568.22;;;15.38;42.54
86012;BME280;76591;42.170;27.850;2024-03-23T08:35:08;101568.81;;;15.40;42.44
86012;BME280;76591;42.170;27.850;2024-03-23T08:37:35;101568.44;;;15.49;42.09
86012;BME280;76591;42.170;27.850;2024-03-23T08:40:00;101566.25;;;15.62;42.10
86012;BME280;76591;42.170;27.850;2024-03-23T08:42:26;101572.81;;;15.50;42.14
86012;BME280;76591;42.170;27.850;2024-03-23T08:44:51;101566.13;;;15.81;42.17
86012;BME280;76591;42.170;27.850;2024-03-23T08:47:17;101559.38;;;16.17;41.11
86012;BME280;76591;42.170;27.850;2024-03-23T08:49:44;101555.28;;;16.32;41.18
86012;BME280;76591;42.170;27.850;2024-03-23T08:52:10;101557.06;;;16.26;40.72
86012;BME280;76591;42.170;27.850;2024-03-23T08:54:35;101556.13;;;16.03;40.91
86012;BME280;76591;42.170;27.850;2024-03-23T08:57:01;101551.72;;;16.02;40.88
86012;BME280;76591;42.170;27.850;2024-03-23T08:59:27;101550.06;;;16.01;41.18
86012;BME280;76591;42.170;27.850;2024-03-23T09:01:53;101553.69;;;16.36;40.86
86012;BME280;76591;42.170;27.850;2024-03-23T09:04:19;101548.53;;;16.39;40.47
86012;BME280;76591;42.170;27.850;2024-03-23T09:06:45;101551.00;;;16.07;41.18
86012;BME280;76591;42.170;27.850;2024-03-23T09:09:10;101552.16;;;16.11;41.51
86012;BME280;76591;42.170;27.850;2024-03-23T09:11:36;101548.28;;;16.41;42.07
86012;BME280;76591;42.170;27.850;2024-03-23T09:14:03;101553.97;;;16.05;42.44
86012;BME280;76591;42.170;27.850;2024-03-23T09:16:29;101551.34;;;15.30;43.53
86012;BME280;76591;42.170;27.850;2024-03-23T09:18:54;101554.81;;;15.13;43.75
86012;BME280;76591;42.170;27.850;2024-03-23T09:21:20;101553.03;;;14.95;45.07
86012;BME280;76591;42.170;27.850;2024-03-23T09:23:46;101551.50;;;14.64;45.80
86012;BME280;76591;42.170;27.850;2024-03-23T09:26:12;101546.72;;;14.59;45.89
86012;BME280;76591;42.170;27.850;2024-03-23T09:28:38;101532.50;;;14.27;46.68
86012;BME280;76591;42.170;27.850;2024-03-23T09:31:05;101539.06;;;14.26;47.38
86012;BME280;76591;42.170;27.850;2024-03-23T09:33:31;101526.72;;;14.35;47.45
86012;BME280;76591;42.170;27.850;2024-03-23T09:35:56;101521.03;;;14.49;46.93
86012;BME280;76591;42.170;27.850;2024-03-23T09:38:23;101522.44;;;14.39;47.02
86012;BME280;76591;42.170;27.850;2024-03-23T09:40:52;101511.94;;;14.78;46.16
86012;BME280;76591;42.170;27.850;2024-03-23T09:43:19;101514.16;;;14.58;46.09
86012;BME280;76591;42.170;27.850;2024-03-23T09:45:45;101520.09;;;15.02;45.13
86012;BME280;76591;42.170;27.850;2024-03-23T09:48:12;101514.16;;;14.93;45.00
86012;BME280;76591;42.170;27.850;2024-03-23T09:50:44;101512.41;;;14.75;44.94
86012;BME280;76591;42.170;27.850;2024-03-23T09:53:12;101502.66;;;14.91;44.86
86012;BME280;76591;42.170;27.850;2024-03-23T09:55:38;101498.00;;;15.15;44.71
86012;BME280;76591;42.170;27.850;2024-03-23T09:58:05;101491.34;;;15.11;45.40
86012;BME280;76591;42.170;27.850;2024-03-23T10:00:36;101491.44;;;15.16;44.80
86012;BME280;76591;42.170;27.850;2024-03-23T10:03:02;101486.56;;;15.18;44.21
86012;BME280;76591;42.170;27.850;2024-03-23T10:05:29;101484.28;;;15.27;43.89
86012;BME280;76591;42.170;27.850;2024-03-23T10:07:56;101479.09;;;15.02;44.39
86012;BME280;76591;42.170;27.850;2024-03-23T10:10:25;101487.88;;;15.04;44.59
86012;BME280;76591;42.170;27.850;2024-03-23T10:12:51;101474.94;;;14.99;43.90
86012;BME280;76591;42.170;27.850;2024-03-23T10:15:27;101468.09;;;15.25;44.54
86012;BME280;76591;42.170;27.850;2024-03-23T10:17:53;101469.03;;;15.31;44.03
86012;BME280;76591;42.170;27.850;2024-03-23T10:20:20;101471.09;;;15.12;44.84
86012;BME280;76591;42.170;27.850;2024-03-23T10:22:50;101462.56;;;14.97;45.38
86012;BME280;76591;42.170;27.850;2024-03-23T10:25:22;101454.25;;;15.03;45.29
86012;BME280;76591;42.170;27.850;2024-03-23T10:28:00;101451.53;;;14.92;45.29
86012;BME280;76591;42.170;27.850;2024-03-23T10:30:27;101447.84;;;14.86;44.90
86012;BME280;76591;42.170;27.850;2024-03-23T10:33:11;101446.53;;;15.00;45.50
86012;BME280;76591;42.170;27.850;2024-03-23T10:35:40;101446.41;;;14.95;46.86
86012;BME280;76591;42.170;27.850;2024-03-23T10:38:06;101435.38;;;14.90;47.26
86012;BME280;76591;42.170;27.850;2024-03-23T10:40:35;101439.25;;;15.06;46.99
86012;BME280;76591;42.170;27.850;2024-03-23T10:43:03;101433.25;;;14.69;47.36
86012;BME280;76591;42.170;27.850;2024-03-23T10:45:30;101432.66;;;14.67;46.00
86012;BME280;76591;42.170;27.850;2024-03-23T10:47:56;101427.53;;;14.82;45.65
86012;BME280;76591;42.170;27.850;2024-03-23T10:50:22;101426.50;;;14.59;45.42
86012;BME280;76591;42.170;27.850;2024-03-23T10:52:48;101414.75;;;14.59;45.79
86012;BME280;76591;42.170;27.850;2024-03-23T10:55:17;101413.53;;;14.67;46.11
86012;BME280;76591;42.170;27.850;2024-03-23T10:57:53;101403.81;;;14.59;47.28
86012;BME280;76591;42.170;27.850;2024-03-23T11:00:20;101403.06;;;14.52;46.36
86012;BME280;76591;42.170;27.850;2024-03-23T11:02:49;101400.84;;;14.37;47.54
86012;BME280;76591;42.170;27.850;2024-03-23T11:05:27;101397.38;;;14.53;46.62
86012;BME280;76591;42.170;27.850;2024-03-23T11:07:53;101398.44;;;14.40;46.18
86012;BME280;76591;42.170;27.850;2024-03-23T11:10:31;101400.59;;;14.27;46.92
86012;BME280;76591;42.170;27.850;2024-03-23T11:13:22;101393.84;;;14.17;48.39
86012;BME280;76591;42.170;27.850;2024-03-23T11:15:48;101389.91;;;14.37;47.69
86012;BME280;76591;42.170;27.850;2024-03-23T11:18:20;101383.25;;;14.09;47.53
86012;BME280;76591;42.170;27.850;2024-03-23T11:20:46;101390.03;;;14.07;47.35
86012;BME280;76591;42.170;27.850;2024-03-23T11:23:28;101381.47;;;14.27;47.98
86012;BME280;76591;42.170;27.850;2024-03-23T11:25:54;101373.72;;;13.88;47.09
86012;BME280;76591;42.170;27.850;2024-03-23T11:28:19;101369.13;;;14.00;47.63
86012;BME280;76591;42.170;27.850;2024-03-23T11:30:47;101378.13;;;13.89;48.06
86012;BME280;76591;42.170;27.850;2024-03-23T11:33:12;101376.94;;;13.85;47.22
86012;BME280;76591;42.170;27.850;2024-03-23T11:35:39;101375.47;;;13.71;47.71
86012;BME280;76591;42.170;27.850;2024-03-23T11:38:09;101364.84;;;13.81;48.50
86012;BME280;76591;42.170;27.850;2024-03-23T11:40:37;101362.59;;;13.78;49.53
86012;BME280;76591;42.170;27.850;2024-03-23T11:43:05;101353.09;;;13.69;49.34
86012;BME280;76591;42.170;27.850;2024-03-23T11:45:39;101354.28;;;13.85;49.29
86012;BME280;76591;42.170;27.850;2024-03-23T11:48:13;101359.38;;;13.69;48.64
86012;BME280;76591;42.170;27.850;2024-03-23T11:50:41;101350.81;;;13.66;49.45
86012;BME280;76591;42.170;27.850;2024-03-23T11:55:44;101347.38;;;13.58;48.73
86012;BME280;76591;42.170;27.850;2024-03-23T11:58:11;101342.97;;;13.57;48.97
86012;BME280;76591;42.170;27.850;2024-03-23T12:00:37;101330.81;;;13.30;49.10
86012;BME280;76591;42.170;27.850;2024-03-23T12:03:03;101347.59;;;13.27;48.58
86012;BME280;76591;42.170;27.850;2024-03-23T12:05:29;101343.84;;;13.09;48.09
86012;BME280;76591;42.170;27.850;2024-03-23T12:07:56;101334.41;;;13.12;48.05
86012;BME280;76591;42.170;27.850;2024-03-23T12:10:40;101327.91;;;13.25;47.43
86012;BME280;76591;42.170;27.850;2024-03-23T12:13:06;101327.91;;;13.25;47.07
86012;BME280;76591;42.170;27.850;2024-03-23T12:15:31;101329.69;;;13.19;48.16
86012;BME280;76591;42.170;27.850;2024-03-23T12:18:09;101321.19;;;13.27;48.20
86012;BME280;76591;42.170;27.850;2024-03-23T12:20:38;101321.56;;;13.31;48.16
86012;BME280;76591;42.170;27.850;2024-03-23T12:23:12;101316.88;;;13.19;49.29
86012;BME280;76591;42.170;27.850;2024-03-23T12:25:39;101312.13;;;13.15;49.66
86012;BME280;76591;42.170;27.850;2024-03-23T12:28:06;101308.28;;;13.04;50.40
86012;BME280;76591;42.170;27.850;2024-03-23T12:30:33;101313.88;;;12.79;51.06
86012;BME280;76591;42.170;27.850;2024-03-23T12:32:59;101305.84;;;12.66;52.26
86012;BME280;76591;42.170;27.850;2024-03-23T12:35:24;101297.16;;;12.75;52.72
86012;BME280;76591;42.170;27.850;2024-03-23T12:37:50;101298.47;;;12.54;52.68
86012;BME280;76591;42.170;27.850;2024-03-23T12:40:16;101289.25;;;12.37;52.28
86012;BME280;76591;42.170;27.850;2024-03-23T12:42:41;101308.75;;;12.52;53.19
86012;BME280;76591;42.170;27.850;2024-03-23T12:45:07;101295.59;;;12.49;52.97
86012;BME280;76591;42.170;27.850;2024-03-23T12:47:33;101288.63;;;12.53;53.62
86012;BME280;76591;42.170;27.850;2024-03-23T12:49:59;101284.56;;;12.44;53.70
86012;BME280;76591;42.170;27.850;2024-03-23T12:52:24;101269.56;;;12.53;53.45
86012;BME280;76591;42.170;27.850;2024-03-23T12:54:57;101281.69;;;12.39;53.00
86012;BME280;76591;42.170;27.850;2024-03-23T12:57:24;101275.09;;;12.47;53.49
86012;BME280;76591;42.170;27.850;2024-03-23T12:59:51;101268.97;;;12.33;54.53
86012;BME280;76591;42.170;27.850;2024-03-23T13:02:18;101269.31;;;12.25;54.20
86012;BME280;76591;42.170;27.850;2024-03-23T13:04:45;101261.75;;;12.27;54.50
86012;BME280;76591;42.170;27.850;2024-03-23T13:07:11;101271.03;;;12.19;53.88
86012;BME280;76591;42.170;27.850;2024-03-23T13:09:36;101272.72;;;12.20;54.20
86012;BME280;76591;42.170;27.850;2024-03-23T13:12:02;101263.16;;;12.11;54.20
86012;BME280;76591;42.170;27.850;2024-03-23T13:14:28;101256.06;;;12.10;54.06
86012;BME280;76591;42.170;27.850;2024-03-23T13:16:53;101248.03;;;12.15;54.24
86012;BME280;76591;42.170;27.850;2024-03-23T13:19:19;101259.75;;;12.15;53.85
86012;BME280;76591;42.170;27.850;2024-03-23T13:21:45;101254.78;;;12.12;54.21
86012;BME280;76591;42.170;27.850;2024-03-23T13:24:11;101239.34;;;12.06;54.07
86012;BME280;76591;42.170;27.850;2024-03-23T13:26:36;101241.31;;;12.18;55.10
86012;BME280;76591;42.170;27.850;2024-03-23T13:29:02;101237.16;;;11.97;54.55
86012;BME280;76591;42.170;27.850;2024-03-23T13:31:27;101250.63;;;11.85;54.00
86012;BME280;76591;42.170;27.850;2024-03-23T13:33:53;101238.72;;;11.86;54.99
86012;BME280;76591;42.170;27.850;2024-03-23T13:36:19;101224.09;;;11.80;53.24
86012;BME280;76591;42.170;27.850;2024-03-23T13:38:44;101227.69;;;11.81;54.24